x

Pi-745 Tabs K (42045) Weather Station

6:00pm - Thu 30th Jul 2015 All times are CDT. -5 hours from GMT.

  • Wind
    7mph, 9mph gusts
  • Sea Temp 86°f
  • Air Temp 82°f
  • Sea Pressure 1016mb
  • Pi-745 Tabs K
  • Pi-745 Tabs K

More Historic Weather Station data

Upgrade to MSW Pro to gain access to the past 30 days of data for over 8000 Wavebouys and Weather Stations around the globe.

Join Pro

Comparision Forecast

View Surf forecast
   
Thu 07/30 6:00pm 7 9 mph 1016mb 86f 82f
4:00pm 7
mph
1017mb 86f 82f
2:00pm 7
mph
1018mb 86f 81f
1:00pm 7 9 mph 1018.1mb 85f 81f
12:00pm 4 7 mph 1018.4mb 85f 82f
11:00am 7
mph
1018.2mb 85f 82f
9:00am 7
mph
1017.8mb 85f 82f
Wed 07/29 12:00pm 11 13 mph 1017.6mb 85f 82f
9:00am 13 16 mph 1016mb 85f 82f
8:00am 13 18 mph 1015.4mb 84f 81f
7:00am 13 16 mph 1014.8mb 85f 80f
6:00am 13 16 mph 1014.4mb 85f 81f
5:00am 16 18 mph 1014.4mb 85f 81f
3:00am 16 20 mph 1014.4mb 85f 81f
1:00am 16 20 mph 1015mb 85f 81f
12:00am 18 20 mph 1015.4mb 85f 81f
Tue 07/28 5:00pm 13 16 mph 1013.7mb 85f 82f
4:00pm 13 18 mph 1013.7mb 85f 82f
3:00pm 16 18 mph 1014.3mb 85f 82f
2:00pm 16 20 mph 1014.7mb 85f 82f
12:00pm 16 18 mph 1015.3mb 85f 82f
9:00am 13 16 mph 1014.8mb 85f 82f
8:00am 25 27 mph 1014.4mb 85f 81f
7:00am 16 18 mph 1013.6mb 85f 81f
5:00am 16 18 mph 1012.7mb 85f 81f
4:00am 16 20 mph 1012.9mb 85f 81f
3:00am 18 20 mph 1012.9mb 85f 81f
Mon 07/27 11:00pm 18 22 mph 1013.6mb 85f 81f
6:00pm 16 20 mph 1011.6mb 85f 82f
5:00pm 18 20 mph 1012.1mb 85f 82f
4:00pm 16 18 mph 1012.5mb 85f 82f
3:00pm 16 18 mph 1013mb 85f 82f
2:00pm 16 20 mph 1013.6mb 85f 82f
1:00pm 16 20 mph 1014.2mb 85f 82f
10:00am 13 16 mph 1013.9mb 85f 82f
9:00am 16 18 mph 1013.3mb 85f 82f
8:00am 16 18 mph 1012.7mb 85f 82f
7:00am 25 27 mph 1012.3mb 85f 80f
5:00am 25 29 mph 1011.7mb 85f 81f